sensor_id;sensor_type;location;lat;lon;timestamp;P1;durP1;ratioP1;P2;durP2;ratioP2
4565;SDS011;2295;51.050;14.608;2023-09-18T00:00:54;8.77;;;7.87;;
4565;SDS011;2295;51.050;14.608;2023-09-18T00:03:24;8.00;;;6.80;;
4565;SDS011;2295;51.050;14.608;2023-09-18T00:05:52;9.60;;;6.60;;
4565;SDS011;2295;51.050;14.608;2023-09-18T00:08:21;10.40;;;7.40;;
4565;SDS011;2295;51.050;14.608;2023-09-18T00:10:50;8.50;;;6.70;;
4565;SDS011;2295;51.050;14.608;2023-09-18T00:13:22;7.90;;;7.20;;
4565;SDS011;2295;51.050;14.608;2023-09-18T00:15:53;7.43;;;6.70;;
4565;SDS011;2295;51.050;14.608;2023-09-18T00:18:22;8.00;;;7.03;;
4565;SDS011;2295;51.050;14.608;2023-09-18T00:20:51;9.97;;;7.00;;
4565;SDS011;2295;51.050;14.608;2023-09-18T00:23:19;6.70;;;6.10;;
4565;SDS011;2295;51.050;14.608;2023-09-18T00:25:47;7.63;;;6.90;;
4565;SDS011;2295;51.050;14.608;2023-09-18T00:28:16;9.50;;;6.43;;
4565;SDS011;2295;51.050;14.608;2023-09-18T00:30:48;7.17;;;6.10;;
4565;SDS011;2295;51.050;14.608;2023-09-18T00:33:17;8.10;;;6.77;;
4565;SDS011;2295;51.050;14.608;2023-09-18T00:35:46;11.30;;;6.70;;
4565;SDS011;2295;51.050;14.608;2023-09-18T00:38:15;9.53;;;6.40;;
4565;SDS011;2295;51.050;14.608;2023-09-18T00:40:44;10.80;;;7.10;;
4565;SDS011;2295;51.050;14.608;2023-09-18T00:43:12;8.90;;;7.10;;
4565;SDS011;2295;51.050;14.608;2023-09-18T00:45:41;7.30;;;6.50;;
4565;SDS011;2295;51.050;14.608;2023-09-18T00:48:13;6.80;;;6.17;;
4565;SDS011;2295;51.050;14.608;2023-09-18T00:50:43;7.87;;;7.17;;
4565;SDS011;2295;51.050;14.608;2023-09-18T00:53:13;8.87;;;7.10;;
4565;SDS011;2295;51.050;14.608;2023-09-18T00:55:45;12.50;;;7.30;;
4565;SDS011;2295;51.050;14.608;2023-09-18T00:58:13;8.30;;;7.40;;
4565;SDS011;2295;51.050;14.608;2023-09-18T01:00:43;7.20;;;6.50;;
4565;SDS011;2295;51.050;14.608;2023-09-18T01:03:11;7.47;;;6.70;;
4565;SDS011;2295;51.050;14.608;2023-09-18T01:05:43;8.17;;;7.33;;
4565;SDS011;2295;51.050;14.608;2023-09-18T01:08:12;7.40;;;6.60;;
4565;SDS011;2295;51.050;14.608;2023-09-18T01:10:42;9.03;;;7.50;;
4565;SDS011;2295;51.050;14.608;2023-09-18T01:13:18;7.07;;;6.47;;
4565;SDS011;2295;51.050;14.608;2023-09-18T01:15:52;7.87;;;7.07;;
4565;SDS011;2295;51.050;14.608;2023-09-18T01:18:26;8.37;;;7.10;;
4565;SDS011;2295;51.050;14.608;2023-09-18T01:20:54;7.30;;;6.60;;
4565;SDS011;2295;51.050;14.608;2023-09-18T01:23:24;9.20;;;6.30;;
4565;SDS011;2295;51.050;14.608;2023-09-18T01:25:52;8.00;;;7.20;;
4565;SDS011;2295;51.050;14.608;2023-09-18T01:28:20;8.53;;;7.63;;
4565;SDS011;2295;51.050;14.608;2023-09-18T01:30:49;8.17;;;7.10;;
4565;SDS011;2295;51.050;14.608;2023-09-18T01:33:17;11.67;;;7.87;;
4565;SDS011;2295;51.050;14.608;2023-09-18T01:35:48;14.53;;;7.27;;
4565;SDS011;2295;51.050;14.608;2023-09-18T01:38:17;8.30;;;7.03;;
4565;SDS011;2295;51.050;14.608;2023-09-18T01:40:47;9.17;;;7.60;;
4565;SDS011;2295;51.050;14.608;2023-09-18T01:43:16;7.37;;;6.67;;
4565;SDS011;2295;51.050;14.608;2023-09-18T01:45:45;9.00;;;7.50;;
4565;SDS011;2295;51.050;14.608;2023-09-18T01:48:14;8.70;;;7.37;;
4565;SDS011;2295;51.050;14.608;2023-09-18T01:50:42;7.40;;;6.70;;
4565;SDS011;2295;51.050;14.608;2023-09-18T01:53:11;7.63;;;6.80;;
4565;SDS011;2295;51.050;14.608;2023-09-18T01:55:40;7.37;;;6.67;;
4565;SDS011;2295;51.050;14.608;2023-09-18T01:58:09;8.70;;;6.50;;
4565;SDS011;2295;51.050;14.608;2023-09-18T02:00:41;8.57;;;6.27;;
4565;SDS011;2295;51.050;14.608;2023-09-18T02:03:10;7.77;;;6.07;;
4565;SDS011;2295;51.050;14.608;2023-09-18T02:05:59;7.10;;;6.40;;
4565;SDS011;2295;51.050;14.608;2023-09-18T02:08:28;11.13;;;6.70;;
4565;SDS011;2295;51.050;14.608;2023-09-18T02:10:57;12.27;;;6.47;;
4565;SDS011;2295;51.050;14.608;2023-09-18T02:13:26;6.73;;;5.87;;
4565;SDS011;2295;51.050;14.608;2023-09-18T02:15:55;7.40;;;6.13;;
4565;SDS011;2295;51.050;14.608;2023-09-18T02:18:23;7.37;;;6.67;;
4565;SDS011;2295;51.050;14.608;2023-09-18T02:20:51;7.43;;;6.73;;
4565;SDS011;2295;51.050;14.608;2023-09-18T02:23:19;7.37;;;6.60;;
4565;SDS011;2295;51.050;14.608;2023-09-18T02:25:55;6.60;;;6.00;;
4565;SDS011;2295;51.050;14.608;2023-09-18T02:28:24;10.50;;;6.67;;
4565;SDS011;2295;51.050;14.608;2023-09-18T02:30:53;10.40;;;7.00;;
4565;SDS011;2295;51.050;14.608;2023-09-18T02:33:22;6.10;;;5.57;;
4565;SDS011;2295;51.050;14.608;2023-09-18T02:35:50;7.00;;;6.40;;
4565;SDS011;2295;51.050;14.608;2023-09-18T02:38:18;8.03;;;6.70;;
4565;SDS011;2295;51.050;14.608;2023-09-18T02:40:47;8.70;;;6.20;;
4565;SDS011;2295;51.050;14.608;2023-09-18T02:43:15;7.43;;;6.57;;
4565;SDS011;2295;51.050;14.608;2023-09-18T02:45:43;7.53;;;6.27;;
4565;SDS011;2295;51.050;14.608;2023-09-18T02:48:13;10.73;;;6.10;;
4565;SDS011;2295;51.050;14.608;2023-09-18T02:50:42;6.20;;;5.70;;
4565;SDS011;2295;51.050;14.608;2023-09-18T02:53:12;7.37;;;6.67;;
4565;SDS011;2295;51.050;14.608;2023-09-18T02:55:46;6.90;;;6.20;;
4565;SDS011;2295;51.050;14.608;2023-09-18T02:58:14;8.23;;;6.10;;
4565;SDS011;2295;51.050;14.608;2023-09-18T03:00:45;8.23;;;6.60;;
4565;SDS011;2295;51.050;14.608;2023-09-18T03:03:15;6.47;;;5.87;;
4565;SDS011;2295;51.050;14.608;2023-09-18T03:05:44;7.47;;;6.00;;
4565;SDS011;2295;51.050;14.608;2023-09-18T03:08:13;9.33;;;6.40;;
4565;SDS011;2295;51.050;14.608;2023-09-18T03:10:42;10.53;;;7.20;;
4565;SDS011;2295;51.050;14.608;2023-09-18T03:13:12;8.90;;;6.50;;
4565;SDS011;2295;51.050;14.608;2023-09-18T03:15:44;8.47;;;7.33;;
4565;SDS011;2295;51.050;14.608;2023-09-18T03:18:13;6.90;;;6.20;;
4565;SDS011;2295;51.050;14.608;2023-09-18T03:20:43;6.70;;;6.07;;
4565;SDS011;2295;51.050;14.608;2023-09-18T03:23:12;7.30;;;6.60;;
4565;SDS011;2295;51.050;14.608;2023-09-18T03:25:40;7.50;;;6.80;;
4565;SDS011;2295;51.050;14.608;2023-09-18T03:28:16;7.70;;;6.90;;
4565;SDS011;2295;51.050;14.608;2023-09-18T03:30:45;7.27;;;6.40;;
4565;SDS011;2295;51.050;14.608;2023-09-18T03:33:15;7.50;;;6.57;;
4565;SDS011;2295;51.050;14.608;2023-09-18T03:35:47;7.63;;;6.87;;
4565;SDS011;2295;51.050;14.608;2023-09-18T03:38:16;8.20;;;7.17;;
4565;SDS011;2295;51.050;14.608;2023-09-18T03:40:45;11.13;;;7.50;;
4565;SDS011;2295;51.050;14.608;2023-09-18T03:43:13;7.17;;;6.47;;
4565;SDS011;2295;51.050;14.608;2023-09-18T03:45:41;8.70;;;6.53;;
4565;SDS011;2295;51.050;14.608;2023-09-18T03:48:10;8.40;;;7.50;;
4565;SDS011;2295;51.050;14.608;2023-09-18T03:50:40;10.23;;;7.40;;
4565;SDS011;2295;51.050;14.608;2023-09-18T03:53:09;12.90;;;8.07;;
4565;SDS011;2295;51.050;14.608;2023-09-18T03:55:38;9.20;;;7.80;;
4565;SDS011;2295;51.050;14.608;2023-09-18T03:58:06;16.10;;;7.87;;
4565;SDS011;2295;51.050;14.608;2023-09-18T04:00:34;13.20;;;7.93;;
4565;SDS011;2295;51.050;14.608;2023-09-18T04:03:03;8.27;;;7.57;;
4565;SDS011;2295;51.050;14.608;2023-09-18T04:05:31;12.13;;;8.13;;
4565;SDS011;2295;51.050;14.608;2023-09-18T04:08:01;8.87;;;7.97;;
4565;SDS011;2295;51.050;14.608;2023-09-18T04:10:30;8.30;;;7.13;;
4565;SDS011;2295;51.050;14.608;2023-09-18T04:12:59;8.43;;;7.50;;
4565;SDS011;2295;51.050;14.608;2023-09-18T04:15:27;12.33;;;7.53;;
4565;SDS011;2295;51.050;14.608;2023-09-18T04:17:57;8.70;;;7.80;;
4565;SDS011;2295;51.050;14.608;2023-09-18T04:20:25;8.57;;;7.57;;
4565;SDS011;2295;51.050;14.608;2023-09-18T04:25:56;9.60;;;8.13;;
4565;SDS011;2295;51.050;14.608;2023-09-18T04:28:24;9.77;;;8.37;;
4565;SDS011;2295;51.050;14.608;2023-09-18T04:30:53;13.17;;;8.43;;
4565;SDS011;2295;51.050;14.608;2023-09-18T04:33:22;12.73;;;8.00;;
4565;SDS011;2295;51.050;14.608;2023-09-18T04:35:51;9.37;;;8.43;;
4565;SDS011;2295;51.050;14.608;2023-09-18T04:38:19;10.40;;;9.10;;
4565;SDS011;2295;51.050;14.608;2023-09-18T04:40:48;13.03;;;8.13;;
4565;SDS011;2295;51.050;14.608;2023-09-18T04:43:17;9.53;;;8.50;;
4565;SDS011;2295;51.050;14.608;2023-09-18T04:45:46;10.83;;;8.53;;
4565;SDS011;2295;51.050;14.608;2023-09-18T04:48:14;9.80;;;8.57;;
4565;SDS011;2295;51.050;14.608;2023-09-18T04:50:42;11.93;;;8.43;;
4565;SDS011;2295;51.050;14.608;2023-09-18T04:53:12;11.40;;;8.50;;
4565;SDS011;2295;51.050;14.608;2023-09-18T04:55:41;9.23;;;8.33;;
4565;SDS011;2295;51.050;14.608;2023-09-18T04:58:09;11.50;;;7.90;;
4565;SDS011;2295;51.050;14.608;2023-09-18T05:00:38;10.00;;;8.03;;
4565;SDS011;2295;51.050;14.608;2023-09-18T05:03:07;11.43;;;7.80;;
4565;SDS011;2295;51.050;14.608;2023-09-18T05:05:37;15.93;;;8.13;;
4565;SDS011;2295;51.050;14.608;2023-09-18T05:08:06;8.87;;;7.90;;
4565;SDS011;2295;51.050;14.608;2023-09-18T05:10:35;9.10;;;7.93;;
4565;SDS011;2295;51.050;14.608;2023-09-18T05:13:03;8.10;;;7.17;;
4565;SDS011;2295;51.050;14.608;2023-09-18T05:15:33;8.67;;;7.17;;
4565;SDS011;2295;51.050;14.608;2023-09-18T05:18:03;8.83;;;7.60;;
4565;SDS011;2295;51.050;14.608;2023-09-18T05:20:31;10.97;;;7.93;;
4565;SDS011;2295;51.050;14.608;2023-09-18T05:23:01;8.37;;;7.47;;
4565;SDS011;2295;51.050;14.608;2023-09-18T05:25:30;10.73;;;6.77;;
4565;SDS011;2295;51.050;14.608;2023-09-18T05:27:59;9.43;;;6.90;;
4565;SDS011;2295;51.050;14.608;2023-09-18T05:30:31;8.40;;;6.97;;
4565;SDS011;2295;51.050;14.608;2023-09-18T05:33:03;9.83;;;7.10;;
4565;SDS011;2295;51.050;14.608;2023-09-18T05:35:33;7.63;;;6.87;;
4565;SDS011;2295;51.050;14.608;2023-09-18T05:38:03;8.90;;;7.00;;
4565;SDS011;2295;51.050;14.608;2023-09-18T05:40:32;7.80;;;6.77;;
4565;SDS011;2295;51.050;14.608;2023-09-18T05:43:01;7.67;;;6.93;;
4565;SDS011;2295;51.050;14.608;2023-09-18T05:45:29;8.00;;;7.20;;
4565;SDS011;2295;51.050;14.608;2023-09-18T05:47:58;7.67;;;6.87;;
4565;SDS011;2295;51.050;14.608;2023-09-18T05:50:33;13.00;;;7.50;;
4565;SDS011;2295;51.050;14.608;2023-09-18T05:53:02;10.53;;;7.23;;
4565;SDS011;2295;51.050;14.608;2023-09-18T05:55:31;10.57;;;7.10;;
4565;SDS011;2295;51.050;14.608;2023-09-18T05:58:00;10.67;;;7.30;;
4565;SDS011;2295;51.050;14.608;2023-09-18T06:00:30;12.90;;;7.13;;
4565;SDS011;2295;51.050;14.608;2023-09-18T06:02:59;8.20;;;6.87;;
4565;SDS011;2295;51.050;14.608;2023-09-18T06:05:28;11.80;;;7.37;;
4565;SDS011;2295;51.050;14.608;2023-09-18T06:08:00;8.00;;;7.20;;
4565;SDS011;2295;51.050;14.608;2023-09-18T06:10:28;11.07;;;6.60;;
4565;SDS011;2295;51.050;14.608;2023-09-18T06:12:56;9.03;;;7.13;;
4565;SDS011;2295;51.050;14.608;2023-09-18T06:15:31;8.10;;;7.30;;
4565;SDS011;2295;51.050;14.608;2023-09-18T06:17:59;7.00;;;6.27;;
4565;SDS011;2295;51.050;14.608;2023-09-18T06:20:28;7.50;;;6.80;;
4565;SDS011;2295;51.050;14.608;2023-09-18T06:22:57;7.50;;;6.43;;
4565;SDS011;2295;51.050;14.608;2023-09-18T06:25:31;8.63;;;6.13;;
4565;SDS011;2295;51.050;14.608;2023-09-18T06:28:00;14.83;;;5.33;;
4565;SDS011;2295;51.050;14.608;2023-09-18T06:30:29;6.53;;;5.70;;
4565;SDS011;2295;51.050;14.608;2023-09-18T06:32:59;8.30;;;5.27;;
4565;SDS011;2295;51.050;14.608;2023-09-18T06:35:28;5.27;;;4.87;;
4565;SDS011;2295;51.050;14.608;2023-09-18T06:37:56;9.70;;;5.17;;
4565;SDS011;2295;51.050;14.608;2023-09-18T06:40:26;8.00;;;5.87;;
4565;SDS011;2295;51.050;14.608;2023-09-18T06:42:59;5.73;;;5.20;;
4565;SDS011;2295;51.050;14.608;2023-09-18T06:45:27;5.43;;;4.80;;
4565;SDS011;2295;51.050;14.608;2023-09-18T06:47:55;5.73;;;5.30;;
4565;SDS011;2295;51.050;14.608;2023-09-18T06:50:24;10.57;;;5.70;;
4565;SDS011;2295;51.050;14.608;2023-09-18T06:52:55;6.00;;;5.13;;
4565;SDS011;2295;51.050;14.608;2023-09-18T06:55:23;5.63;;;5.13;;
4565;SDS011;2295;51.050;14.608;2023-09-18T06:57:52;4.73;;;4.33;;
4565;SDS011;2295;51.050;14.608;2023-09-18T07:00:22;5.83;;;5.33;;
4565;SDS011;2295;51.050;14.608;2023-09-18T07:02:51;5.10;;;4.30;;
4565;SDS011;2295;51.050;14.608;2023-09-18T07:05:20;6.90;;;4.80;;
4565;SDS011;2295;51.050;14.608;2023-09-18T07:07:48;6.17;;;4.30;;
4565;SDS011;2295;51.050;14.608;2023-09-18T07:10:16;6.23;;;4.80;;
4565;SDS011;2295;51.050;14.608;2023-09-18T07:12:45;9.93;;;5.23;;
4565;SDS011;2295;51.050;14.608;2023-09-18T07:15:13;4.50;;;4.20;;
4565;SDS011;2295;51.050;14.608;2023-09-18T07:17:43;4.47;;;4.17;;
4565;SDS011;2295;51.050;14.608;2023-09-18T07:20:11;4.80;;;4.40;;
4565;SDS011;2295;51.050;14.608;2023-09-18T07:22:45;5.50;;;3.87;;
4565;SDS011;2295;51.050;14.608;2023-09-18T07:25:14;6.60;;;3.80;;
4565;SDS011;2295;51.050;14.608;2023-09-18T07:27:43;4.53;;;4.13;;
4565;SDS011;2295;51.050;14.608;2023-09-18T07:30:14;3.87;;;3.57;;
4565;SDS011;2295;51.050;14.608;2023-09-18T07:32:45;4.30;;;4.00;;
4565;SDS011;2295;51.050;14.608;2023-09-18T07:35:14;4.33;;;4.00;;
4565;SDS011;2295;51.050;14.608;2023-09-18T07:37:43;4.70;;;3.93;;
4565;SDS011;2295;51.050;14.608;2023-09-18T07:40:16;5.10;;;4.60;;
4565;SDS011;2295;51.050;14.608;2023-09-18T07:42:45;4.63;;;4.20;;
4565;SDS011;2295;51.050;14.608;2023-09-18T07:45:13;5.77;;;4.50;;
4565;SDS011;2295;51.050;14.608;2023-09-18T07:47:41;3.97;;;3.67;;
4565;SDS011;2295;51.050;14.608;2023-09-18T07:50:11;4.50;;;3.80;;
4565;SDS011;2295;51.050;14.608;2023-09-18T07:52:41;8.90;;;3.17;;
4565;SDS011;2295;51.050;14.608;2023-09-18T07:55:09;5.93;;;3.70;;
4565;SDS011;2295;51.050;14.608;2023-09-18T07:57:38;6.67;;;4.10;;
4565;SDS011;2295;51.050;14.608;2023-09-18T08:00:07;6.17;;;3.10;;
4565;SDS011;2295;51.050;14.608;2023-09-18T08:02:39;5.23;;;3.57;;
4565;SDS011;2295;51.050;14.608;2023-09-18T08:05:10;3.50;;;3.13;;
4565;SDS011;2295;51.050;14.608;2023-09-18T08:07:39;3.07;;;2.83;;
4565;SDS011;2295;51.050;14.608;2023-09-18T08:10:08;6.63;;;3.30;;
4565;SDS011;2295;51.050;14.608;2023-09-18T08:12:39;3.90;;;3.50;;
4565;SDS011;2295;51.050;14.608;2023-09-18T08:15:07;4.00;;;3.33;;
4565;SDS011;2295;51.050;14.608;2023-09-18T08:17:36;4.53;;;3.50;;
4565;SDS011;2295;51.050;14.608;2023-09-18T08:20:07;9.03;;;4.13;;
4565;SDS011;2295;51.050;14.608;2023-09-18T08:22:41;7.47;;;3.80;;
4565;SDS011;2295;51.050;14.608;2023-09-18T08:25:09;6.50;;;3.50;;
4565;SDS011;2295;51.050;14.608;2023-09-18T08:27:39;8.17;;;4.53;;
4565;SDS011;2295;51.050;14.608;2023-09-18T08:30:10;4.20;;;3.80;;
4565;SDS011;2295;51.050;14.608;2023-09-18T08:32:40;6.50;;;4.43;;
4565;SDS011;2295;51.050;14.608;2023-09-18T08:35:10;9.47;;;4.10;;
4565;SDS011;2295;51.050;14.608;2023-09-18T08:37:41;5.30;;;4.80;;
4565;SDS011;2295;51.050;14.608;2023-09-18T08:40:10;4.43;;;4.03;;
4565;SDS011;2295;51.050;14.608;2023-09-18T08:42:43;5.23;;;4.27;;
4565;SDS011;2295;51.050;14.608;2023-09-18T08:45:15;9.83;;;4.30;;
4565;SDS011;2295;51.050;14.608;2023-09-18T08:47:50;7.87;;;4.53;;
4565;SDS011;2295;51.050;14.608;2023-09-18T08:50:21;7.63;;;3.83;;
4565;SDS011;2295;51.050;14.608;2023-09-18T08:52:51;10.07;;;3.80;;
4565;SDS011;2295;51.050;14.608;2023-09-18T08:55:20;9.80;;;4.40;;
4565;SDS011;2295;51.050;14.608;2023-09-18T08:57:48;4.03;;;3.83;;
4565;SDS011;2295;51.050;14.608;2023-09-18T09:00:17;11.90;;;4.10;;
4565;SDS011;2295;51.050;14.608;2023-09-18T09:02:46;7.17;;;4.47;;
4565;SDS011;2295;51.050;14.608;2023-09-18T09:05:17;7.20;;;4.20;;
4565;SDS011;2295;51.050;14.608;2023-09-18T09:07:46;11.43;;;4.20;;
4565;SDS011;2295;51.050;14.608;2023-09-18T09:10:16;3.80;;;3.50;;
4565;SDS011;2295;51.050;14.608;2023-09-18T09:12:54;3.60;;;3.30;;
4565;SDS011;2295;51.050;14.608;2023-09-18T09:15:24;5.70;;;3.70;;
4565;SDS011;2295;51.050;14.608;2023-09-18T09:18:02;5.23;;;3.70;;
4565;SDS011;2295;51.050;14.608;2023-09-18T09:20:32;6.20;;;4.30;;
4565;SDS011;2295;51.050;14.608;2023-09-18T09:23:02;4.53;;;4.13;;
4565;SDS011;2295;51.050;14.608;2023-09-18T09:25:34;6.53;;;3.87;;
4565;SDS011;2295;51.050;14.608;2023-09-18T09:28:03;3.90;;;3.60;;
4565;SDS011;2295;51.050;14.608;2023-09-18T09:30:34;4.30;;;4.00;;
4565;SDS011;2295;51.050;14.608;2023-09-18T09:33:03;4.93;;;3.53;;
4565;SDS011;2295;51.050;14.608;2023-09-18T09:35:33;5.50;;;4.20;;
4565;SDS011;2295;51.050;14.608;2023-09-18T09:38:07;3.93;;;3.53;;
4565;SDS011;2295;51.050;14.608;2023-09-18T09:40:38;5.33;;;3.70;;
4565;SDS011;2295;51.050;14.608;2023-09-18T09:43:08;5.20;;;3.90;;
4565;SDS011;2295;51.050;14.608;2023-09-18T09:45:37;8.03;;;3.50;;
4565;SDS011;2295;51.050;14.608;2023-09-18T09:48:08;4.00;;;3.80;;
4565;SDS011;2295;51.050;14.608;2023-09-18T09:50:43;4.10;;;3.70;;
4565;SDS011;2295;51.050;14.608;2023-09-18T09:53:13;4.23;;;3.77;;
4565;SDS011;2295;51.050;14.608;2023-09-18T09:55:44;4.33;;;3.93;;
4565;SDS011;2295;51.050;14.608;2023-09-18T09:58:12;7.43;;;3.93;;
4565;SDS011;2295;51.050;14.608;2023-09-18T10:00:41;4.27;;;3.90;;
4565;SDS011;2295;51.050;14.608;2023-09-18T10:03:14;15.60;;;4.20;;
4565;SDS011;2295;51.050;14.608;2023-09-18T10:05:45;4.00;;;3.70;;
4565;SDS011;2295;51.050;14.608;2023-09-18T10:08:16;4.37;;;3.90;;
4565;SDS011;2295;51.050;14.608;2023-09-18T10:10:50;4.27;;;3.87;;
4565;SDS011;2295;51.050;14.608;2023-09-18T10:13:20;4.70;;;4.30;;
4565;SDS011;2295;51.050;14.608;2023-09-18T10:15:53;13.80;;;4.50;;
4565;SDS011;2295;51.050;14.608;2023-09-18T10:18:25;4.60;;;4.13;;
4565;SDS011;2295;51.050;14.608;2023-09-18T10:20:57;8.10;;;4.60;;
4565;SDS011;2295;51.050;14.608;2023-09-18T10:23:38;4.77;;;4.37;;
4565;SDS011;2295;51.050;14.608;2023-09-18T10:26:22;3.93;;;3.63;;
4565;SDS011;2295;51.050;14.608;2023-09-18T10:28:52;5.00;;;4.63;;
4565;SDS011;2295;51.050;14.608;2023-09-18T10:31:25;8.30;;;3.90;;
4565;SDS011;2295;51.050;14.608;2023-09-18T10:33:55;4.50;;;4.10;;
4565;SDS011;2295;51.050;14.608;2023-09-18T10:36:24;4.20;;;3.90;;
4565;SDS011;2295;51.050;14.608;2023-09-18T10:38:53;4.77;;;3.90;;
4565;SDS011;2295;51.050;14.608;2023-09-18T10:41:25;4.27;;;4.07;;
4565;SDS011;2295;51.050;14.608;2023-09-18T10:43:54;4.93;;;3.87;;
4565;SDS011;2295;51.050;14.608;2023-09-18T10:46:25;7.43;;;4.20;;
4565;SDS011;2295;51.050;14.608;2023-09-18T10:48:54;7.50;;;4.33;;
4565;SDS011;2295;51.050;14.608;2023-09-18T10:51:24;5.27;;;4.80;;
4565;SDS011;2295;51.050;14.608;2023-09-18T10:53:53;4.60;;;4.30;;
4565;SDS011;2295;51.050;14.608;2023-09-18T10:56:25;5.00;;;4.60;;
4565;SDS011;2295;51.050;14.608;2023-09-18T10:58:57;5.03;;;4.63;;
4565;SDS011;2295;51.050;14.608;2023-09-18T11:01:27;7.50;;;5.00;;
4565;SDS011;2295;51.050;14.608;2023-09-18T11:04:00;8.40;;;4.83;;
4565;SDS011;2295;51.050;14.608;2023-09-18T11:06:30;9.40;;;4.60;;
4565;SDS011;2295;51.050;14.608;2023-09-18T11:09:40;5.87;;;4.43;;
4565;SDS011;2295;51.050;14.608;2023-09-18T11:12:11;9.20;;;4.83;;
4565;SDS011;2295;51.050;14.608;2023-09-18T11:14:44;5.40;;;4.73;;
4565;SDS011;2295;51.050;14.608;2023-09-18T11:17:28;5.20;;;4.83;;
4565;SDS011;2295;51.050;14.608;2023-09-18T11:20:02;5.20;;;4.90;;
4565;SDS011;2295;51.050;14.608;2023-09-18T11:22:39;5.20;;;4.80;;
4565;SDS011;2295;51.050;14.608;2023-09-18T11:25:28;5.23;;;4.60;;
4565;SDS011;2295;51.050;14.608;2023-09-18T11:28:02;6.27;;;4.80;;
4565;SDS011;2295;51.050;14.608;2023-09-18T11:30:33;5.07;;;4.67;;
4565;SDS011;2295;51.050;14.608;2023-09-18T11:33:03;4.73;;;4.30;;
4565;SDS011;2295;51.050;14.608;2023-09-18T11:35:32;6.63;;;4.77;;
4565;SDS011;2295;51.050;14.608;2023-09-18T11:38:05;13.67;;;5.17;;
4565;SDS011;2295;51.050;14.608;2023-09-18T11:40:35;4.70;;;4.40;;
4565;SDS011;2295;51.050;14.608;2023-09-18T11:43:25;10.80;;;5.77;;
4565;SDS011;2295;51.050;14.608;2023-09-18T11:45:57;5.10;;;4.80;;
4565;SDS011;2295;51.050;14.608;2023-09-18T11:48:28;6.57;;;5.03;;
4565;SDS011;2295;51.050;14.608;2023-09-18T11:51:00;4.80;;;4.47;;
4565;SDS011;2295;51.050;14.608;2023-09-18T11:53:33;5.47;;;5.07;;
4565;SDS011;2295;51.050;14.608;2023-09-18T11:56:04;13.90;;;5.13;;
4565;SDS011;2295;51.050;14.608;2023-09-18T11:58:48;6.20;;;5.70;;
4565;SDS011;2295;51.050;14.608;2023-09-18T12:01:17;12.27;;;6.03;;
4565;SDS011;2295;51.050;14.608;2023-09-18T12:03:52;16.80;;;6.87;;
4565;SDS011;2295;51.050;14.608;2023-09-18T12:06:21;11.40;;;6.07;;
4565;SDS011;2295;51.050;14.608;2023-09-18T12:08:51;21.07;;;7.30;;
4565;SDS011;2295;51.050;14.608;2023-09-18T12:11:20;16.30;;;6.90;;
4565;SDS011;2295;51.050;14.608;2023-09-18T12:13:52;9.60;;;6.53;;
4565;SDS011;2295;51.050;14.608;2023-09-18T12:16:20;8.20;;;7.50;;
4565;SDS011;2295;51.050;14.608;2023-09-18T12:18:49;8.30;;;7.47;;
4565;SDS011;2295;51.050;14.608;2023-09-18T12:21:18;10.90;;;7.37;;
4565;SDS011;2295;51.050;14.608;2023-09-18T12:23:46;8.20;;;7.40;;
4565;SDS011;2295;51.050;14.608;2023-09-18T12:26:15;12.63;;;7.80;;
4565;SDS011;2295;51.050;14.608;2023-09-18T12:28:45;13.67;;;6.60;;
4565;SDS011;2295;51.050;14.608;2023-09-18T12:31:15;7.73;;;7.00;;
4565;SDS011;2295;51.050;14.608;2023-09-18T12:33:44;8.70;;;7.00;;
4565;SDS011;2295;51.050;14.608;2023-09-18T12:36:14;10.83;;;6.90;;
4565;SDS011;2295;51.050;14.608;2023-09-18T12:38:55;7.20;;;6.50;;
4565;SDS011;2295;51.050;14.608;2023-09-18T12:41:24;6.90;;;5.80;;
4565;SDS011;2295;51.050;14.608;2023-09-18T12:43:58;9.73;;;6.70;;
4565;SDS011;2295;51.050;14.608;2023-09-18T12:46:28;11.93;;;6.70;;
4565;SDS011;2295;51.050;14.608;2023-09-18T12:48:57;13.97;;;7.60;;
4565;SDS011;2295;51.050;14.608;2023-09-18T12:51:42;8.57;;;7.30;;
4565;SDS011;2295;51.050;14.608;2023-09-18T12:54:12;10.37;;;7.47;;
4565;SDS011;2295;51.050;14.608;2023-09-18T12:56:42;10.07;;;7.70;;
4565;SDS011;2295;51.050;14.608;2023-09-18T12:59:11;20.00;;;8.00;;
4565;SDS011;2295;51.050;14.608;2023-09-18T13:01:47;7.73;;;6.93;;
4565;SDS011;2295;51.050;14.608;2023-09-18T13:04:16;7.50;;;6.80;;
4565;SDS011;2295;51.050;14.608;2023-09-18T13:06:44;16.63;;;6.87;;
4565;SDS011;2295;51.050;14.608;2023-09-18T13:09:15;13.20;;;6.70;;
4565;SDS011;2295;51.050;14.608;2023-09-18T13:11:52;6.93;;;6.37;;
4565;SDS011;2295;51.050;14.608;2023-09-18T13:14:21;6.93;;;6.33;;
4565;SDS011;2295;51.050;14.608;2023-09-18T13:16:51;7.40;;;6.70;;
4565;SDS011;2295;51.050;14.608;2023-09-18T13:19:20;7.40;;;6.30;;
4565;SDS011;2295;51.050;14.608;2023-09-18T13:21:49;6.87;;;6.37;;
4565;SDS011;2295;51.050;14.608;2023-09-18T13:24:27;7.07;;;6.37;;
4565;SDS011;2295;51.050;14.608;2023-09-18T13:26:57;7.87;;;7.07;;
4565;SDS011;2295;51.050;14.608;2023-09-18T13:29:27;22.20;;;7.00;;
4565;SDS011;2295;51.050;14.608;2023-09-18T13:31:57;7.20;;;6.50;;
4565;SDS011;2295;51.050;14.608;2023-09-18T13:34:26;7.70;;;6.67;;
4565;SDS011;2295;51.050;14.608;2023-09-18T13:36:56;7.33;;;6.73;;
4565;SDS011;2295;51.050;14.608;2023-09-18T13:39:28;7.63;;;6.00;;
4565;SDS011;2295;51.050;14.608;2023-09-18T13:41:56;7.70;;;6.60;;
4565;SDS011;2295;51.050;14.608;2023-09-18T13:44:25;7.87;;;6.73;;
4565;SDS011;2295;51.050;14.608;2023-09-18T13:46:53;7.23;;;6.53;;
4565;SDS011;2295;51.050;14.608;2023-09-18T13:49:23;7.47;;;6.80;;
4565;SDS011;2295;51.050;14.608;2023-09-18T13:51:54;15.40;;;7.10;;
4565;SDS011;2295;51.050;14.608;2023-09-18T13:54:23;14.10;;;6.23;;
4565;SDS011;2295;51.050;14.608;2023-09-18T13:56:54;16.50;;;6.70;;
4565;SDS011;2295;51.050;14.608;2023-09-18T13:59:24;10.80;;;7.20;;
4565;SDS011;2295;51.050;14.608;2023-09-18T14:01:55;8.40;;;6.93;;
4565;SDS011;2295;51.050;14.608;2023-09-18T14:04:25;9.93;;;7.50;;
4565;SDS011;2295;51.050;14.608;2023-09-18T14:06:55;8.43;;;6.90;;
4565;SDS011;2295;51.050;14.608;2023-09-18T14:09:25;7.90;;;7.10;;
4565;SDS011;2295;51.050;14.608;2023-09-18T14:11:55;8.00;;;7.20;;
4565;SDS011;2295;51.050;14.608;2023-09-18T14:14:23;10.17;;;7.60;;
4565;SDS011;2295;51.050;14.608;2023-09-18T14:16:52;12.97;;;7.97;;
4565;SDS011;2295;51.050;14.608;2023-09-18T14:19:25;12.67;;;7.40;;
4565;SDS011;2295;51.050;14.608;2023-09-18T14:21:53;10.43;;;8.37;;
4565;SDS011;2295;51.050;14.608;2023-09-18T14:24:21;7.90;;;7.10;;
4565;SDS011;2295;51.050;14.608;2023-09-18T14:26:52;7.37;;;6.67;;
4565;SDS011;2295;51.050;14.608;2023-09-18T14:29:23;10.50;;;7.57;;
4565;SDS011;2295;51.050;14.608;2023-09-18T14:31:51;11.03;;;7.80;;
4565;SDS011;2295;51.050;14.608;2023-09-18T14:34:20;13.40;;;7.93;;
4565;SDS011;2295;51.050;14.608;2023-09-18T14:36:50;8.93;;;7.47;;
4565;SDS011;2295;51.050;14.608;2023-09-18T14:39:18;8.57;;;7.77;;
4565;SDS011;2295;51.050;14.608;2023-09-18T14:41:49;7.57;;;6.80;;
4565;SDS011;2295;51.050;14.608;2023-09-18T14:44:17;16.73;;;7.20;;
4565;SDS011;2295;51.050;14.608;2023-09-18T14:46:46;30.40;;;12.07;;
4565;SDS011;2295;51.050;14.608;2023-09-18T14:49:14;12.00;;;8.67;;
4565;SDS011;2295;51.050;14.608;2023-09-18T14:51:42;9.83;;;7.43;;
4565;SDS011;2295;51.050;14.608;2023-09-18T14:54:21;17.03;;;9.47;;
4565;SDS011;2295;51.050;14.608;2023-09-18T14:56:50;16.00;;;9.87;;
4565;SDS011;2295;51.050;14.608;2023-09-18T14:59:18;9.60;;;8.60;;
4565;SDS011;2295;51.050;14.608;2023-09-18T15:02:05;12.30;;;8.10;;
4565;SDS011;2295;51.050;14.608;2023-09-18T15:04:34;9.00;;;7.50;;
4565;SDS011;2295;51.050;14.608;2023-09-18T15:07:03;10.70;;;7.70;;
4565;SDS011;2295;51.050;14.608;2023-09-18T15:09:33;13.43;;;7.80;;
4565;SDS011;2295;51.050;14.608;2023-09-18T15:12:01;8.77;;;7.90;;
4565;SDS011;2295;51.050;14.608;2023-09-18T15:14:36;11.00;;;8.00;;
4565;SDS011;2295;51.050;14.608;2023-09-18T15:17:08;11.93;;;7.43;;
4565;SDS011;2295;51.050;14.608;2023-09-18T15:19:36;8.93;;;8.10;;